createdAt,value
2022-08-19T00:01:53.491Z,99.90
2022-08-19T00:04:23.650Z,99.90
2022-08-19T00:06:50.608Z,99.90
2022-08-19T00:09:19.977Z,99.90
2022-08-19T00:11:47.785Z,99.90
2022-08-19T00:14:17.364Z,99.90
2022-08-19T00:16:47.181Z,99.90
2022-08-19T00:19:15.057Z,99.90
2022-08-19T00:21:42.110Z,99.90
2022-08-19T00:24:10.296Z,99.90
2022-08-19T00:26:38.253Z,99.90
2022-08-19T00:29:06.869Z,99.90
2022-08-19T00:31:33.818Z,99.90
2022-08-19T00:34:00.949Z,99.90
2022-08-19T00:36:29.604Z,99.90
2022-08-19T00:38:57.132Z,99.90
2022-08-19T00:41:25.801Z,99.90
2022-08-19T00:44:04.545Z,99.90
2022-08-19T00:46:33.636Z,99.90
2022-08-19T00:49:03.347Z,99.90
2022-08-19T00:51:33.514Z,99.90
2022-08-19T00:54:02.626Z,99.90
2022-08-19T00:56:29.841Z,99.90
2022-08-19T00:58:59.427Z,99.90
2022-08-19T01:01:26.981Z,99.90
2022-08-19T01:03:57.783Z,99.90
2022-08-19T01:06:27.015Z,99.90
2022-08-19T01:08:55.410Z,99.90
2022-08-19T01:11:22.364Z,99.90
2022-08-19T01:13:51.251Z,99.90
2022-08-19T01:16:20.318Z,99.90
2022-08-19T01:18:48.207Z,99.90
2022-08-19T01:21:43.229Z,99.90
2022-08-19T01:24:10.135Z,99.90
2022-08-19T01:26:45.437Z,99.90
2022-08-19T01:29:13.911Z,99.90
2022-08-19T01:31:41.900Z,99.90
2022-08-19T01:34:08.902Z,99.90
2022-08-19T01:36:43.084Z,99.90
2022-08-19T01:39:14.180Z,99.90
2022-08-19T01:41:41.151Z,99.90
2022-08-19T01:44:18.682Z,99.90
2022-08-19T01:46:48.758Z,99.90
2022-08-19T01:49:17.032Z,99.90
2022-08-19T01:51:43.938Z,99.90
2022-08-19T01:54:13.555Z,99.90
2022-08-19T01:56:40.446Z,99.90
2022-08-19T01:59:13.923Z,99.90
2022-08-19T02:01:41.193Z,99.90
2022-08-19T02:04:08.523Z,99.90
2022-08-19T02:06:36.073Z,99.90
2022-08-19T02:09:04.674Z,99.90
2022-08-19T02:11:34.644Z,99.90
2022-08-19T02:14:03.776Z,99.90
2022-08-19T02:16:31.736Z,99.90
2022-08-19T02:19:01.614Z,99.90
2022-08-19T02:21:29.875Z,99.90
2022-08-19T02:23:57.354Z,99.90
2022-08-19T02:26:24.581Z,99.90
2022-08-19T02:28:51.528Z,99.90
2022-08-19T02:31:21.270Z,99.90
2022-08-19T02:33:48.498Z,99.90
2022-08-19T02:36:20.606Z,99.90
2022-08-19T02:38:54.697Z,99.90
2022-08-19T02:41:23.900Z,99.90
2022-08-19T02:44:26.681Z,99.90
2022-08-19T02:46:42.199Z,99.90
2022-08-19T02:49:09.268Z,99.90
2022-08-19T02:51:42.104Z,99.90
2022-08-19T02:54:11.244Z,99.90
2022-08-19T02:56:40.580Z,99.90
2022-08-19T02:59:10.212Z,99.90
2022-08-19T03:01:40.813Z,99.90
2022-08-19T03:04:09.720Z,99.90
2022-08-19T03:06:39.827Z,99.90
2022-08-19T03:09:06.900Z,99.90
2022-08-19T03:11:34.278Z,99.90
2022-08-19T03:14:02.664Z,99.90
2022-08-19T03:16:33.628Z,99.90
2022-08-19T03:19:01.434Z,99.90
2022-08-19T03:21:32.014Z,99.90
2022-08-19T03:24:02.639Z,99.90
2022-08-19T03:26:30.502Z,99.90
2022-08-19T03:28:58.960Z,99.90
2022-08-19T03:31:43.807Z,99.90
2022-08-19T03:34:21.135Z,99.90
2022-08-19T03:36:48.477Z,99.90
2022-08-19T03:39:16.569Z,99.90
2022-08-19T03:41:48.240Z,99.90
2022-08-19T03:44:19.331Z,99.90
2022-08-19T03:46:58.742Z,99.90
2022-08-19T03:49:28.431Z,99.90
2022-08-19T03:51:58.150Z,99.90
2022-08-19T03:54:27.523Z,99.90
2022-08-19T03:56:56.943Z,99.90
2022-08-19T03:59:29.737Z,99.90
2022-08-19T04:01:58.414Z,99.90
2022-08-19T04:04:29.060Z,99.90
2022-08-19T04:06:57.234Z,99.90
2022-08-19T04:09:24.117Z,99.90
2022-08-19T04:11:57.331Z,99.90
2022-08-19T04:14:31.417Z,99.90
2022-08-19T04:17:00.190Z,99.90
2022-08-19T04:19:27.439Z,99.90
2022-08-19T04:21:55.804Z,99.90
2022-08-19T04:24:23.993Z,99.90
2022-08-19T04:26:51.227Z,99.90
2022-08-19T04:29:26.058Z,99.90
2022-08-19T04:31:55.478Z,99.90
2022-08-19T04:34:25.024Z,99.90
2022-08-19T04:36:53.757Z,99.90
2022-08-19T04:39:44.888Z,99.90
2022-08-19T04:42:31.129Z,99.90
2022-08-19T04:44:59.613Z,99.90
2022-08-19T04:47:51.435Z,99.90
2022-08-19T04:50:14.136Z,99.90
2022-08-19T04:52:43.886Z,99.90
2022-08-19T04:55:12.316Z,99.90
2022-08-19T04:57:41.597Z,99.90
2022-08-19T05:00:10.316Z,99.90
2022-08-19T05:02:38.678Z,99.90
2022-08-19T05:05:07.543Z,99.90
2022-08-19T05:07:34.961Z,99.90
2022-08-19T05:10:02.143Z,99.90
2022-08-19T05:12:29.917Z,99.90
2022-08-19T05:14:58.612Z,99.90
2022-08-19T05:17:29.056Z,99.90
2022-08-19T05:20:16.686Z,99.90
2022-08-19T05:22:45.325Z,99.90
2022-08-19T05:25:16.077Z,99.90
2022-08-19T05:27:43.782Z,99.90
2022-08-19T05:30:12.333Z,99.90
2022-08-19T05:32:40.672Z,99.90
2022-08-19T05:35:08.138Z,99.90
2022-08-19T05:37:35.325Z,99.90
2022-08-19T05:40:02.703Z,99.90
2022-08-19T05:42:29.606Z,99.90
2022-08-19T05:44:57.088Z,99.90
2022-08-19T05:47:24.165Z,99.90
2022-08-19T05:49:51.873Z,99.90
2022-08-19T05:52:19.636Z,99.90
2022-08-19T05:54:53.121Z,99.90
2022-08-19T05:57:20.683Z,99.90
2022-08-19T05:59:57.681Z,99.90
2022-08-19T06:02:26.053Z,99.90
2022-08-19T06:04:53.048Z,99.90
2022-08-19T06:07:20.600Z,99.90
2022-08-19T06:09:59.023Z,99.90
2022-08-19T06:12:35.440Z,99.90
2022-08-19T06:15:09.171Z,99.90
2022-08-19T06:17:36.321Z,99.90
2022-08-19T06:20:08.579Z,99.90
2022-08-19T06:26:17.307Z,99.90
2022-08-19T06:32:25.450Z,65.70
2022-08-19T06:34:52.310Z,65.70
2022-08-19T06:37:19.216Z,71.20
2022-08-19T06:39:46.378Z,59.70
2022-08-19T06:42:17.821Z,87.70
2022-08-19T06:44:49.002Z,78.10
2022-08-19T06:47:23.451Z,44.00
2022-08-19T06:50:03.153Z,37.80
2022-08-19T06:52:36.484Z,30.50
2022-08-19T06:55:06.360Z,31.70
2022-08-19T06:57:34.572Z,25.30
2022-08-19T07:00:01.794Z,39.10
2022-08-19T07:02:28.727Z,7.20
2022-08-19T07:04:58.421Z,17.20
2022-08-19T07:07:25.970Z,1.00
2022-08-19T07:09:59.393Z,1.00
2022-08-19T07:12:35.452Z,1.00
2022-08-19T07:15:04.658Z,1.00
2022-08-19T07:17:32.370Z,1.00
2022-08-19T07:20:05.448Z,1.00
2022-08-19T07:26:27.970Z,1.00
2022-08-19T07:28:56.546Z,1.00
2022-08-19T07:31:26.833Z,1.00
2022-08-19T07:33:58.211Z,1.00
2022-08-19T07:40:08.235Z,1.00
2022-08-19T07:42:35.222Z,1.00
2022-08-19T07:45:02.510Z,1.00
2022-08-19T07:47:48.758Z,1.00
2022-08-19T07:50:17.795Z,1.00
2022-08-19T07:52:48.700Z,1.00
2022-08-19T07:55:41.943Z,1.00
2022-08-19T07:58:06.162Z,99.90
2022-08-19T08:00:33.119Z,99.90
2022-08-19T08:02:59.974Z,99.90
2022-08-19T08:05:45.459Z,99.90
2022-08-19T08:08:32.026Z,23.20
2022-08-19T08:10:59.668Z,1.00
2022-08-19T08:13:27.474Z,1.00
2022-08-19T08:15:55.963Z,99.90
2022-08-19T08:18:27.984Z,99.90
2022-08-19T08:20:58.302Z,1.00
2022-08-19T08:23:29.650Z,1.00
2022-08-19T08:25:59.110Z,99.90
2022-08-19T08:28:29.624Z,99.90
2022-08-19T08:30:58.302Z,1.00
2022-08-19T08:33:33.831Z,40.60
2022-08-19T08:36:09.606Z,1.00
2022-08-19T08:38:41.558Z,1.00
2022-08-19T08:41:42.164Z,99.90
2022-08-19T08:44:20.179Z,1.00
2022-08-19T08:46:53.892Z,1.00
2022-08-19T08:49:34.462Z,1.00
2022-08-19T08:52:21.650Z,99.90
2022-08-19T08:54:55.216Z,1.00
2022-08-19T08:57:48.535Z,1.00
2022-08-19T09:00:31.465Z,99.90
2022-08-19T09:03:01.198Z,99.90
2022-08-19T09:05:58.725Z,99.90
2022-08-19T09:08:34.586Z,99.90
2022-08-19T09:11:08.274Z,1.00
2022-08-19T09:13:59.678Z,60.70
2022-08-19T09:16:28.638Z,1.00
2022-08-19T09:19:01.989Z,99.90
2022-08-19T09:21:30.583Z,99.90
2022-08-19T09:24:03.283Z,45.30
2022-08-19T09:26:47.594Z,99.90
2022-08-19T09:29:22.572Z,99.30
2022-08-19T09:31:51.039Z,99.90
2022-08-19T09:34:21.138Z,99.90
2022-08-19T09:36:53.464Z,99.90
2022-08-19T09:39:20.717Z,99.90
2022-08-19T09:41:49.166Z,99.90
2022-08-19T09:44:16.332Z,99.90
2022-08-19T09:46:43.422Z,99.90
2022-08-19T09:49:10.355Z,99.90
2022-08-19T09:51:37.516Z,94.60
2022-08-19T09:54:05.815Z,90.00
2022-08-19T09:56:33.914Z,99.90
2022-08-19T09:59:04.464Z,1.00
2022-08-19T10:01:33.208Z,99.90
2022-08-19T10:04:01.309Z,99.90
2022-08-19T10:06:39.916Z,1.00
2022-08-19T10:09:15.422Z,40.30
2022-08-19T10:11:51.231Z,64.20
2022-08-19T10:14:23.645Z,99.90
2022-08-19T10:16:52.797Z,99.90
2022-08-19T10:19:25.259Z,1.00
2022-08-19T10:21:53.859Z,99.90
2022-08-19T10:24:21.738Z,99.90
2022-08-19T10:26:57.221Z,99.90
2022-08-19T10:29:32.824Z,99.90
2022-08-19T10:32:09.537Z,99.90
2022-08-19T10:34:48.943Z,99.90
2022-08-19T10:37:23.496Z,99.90
2022-08-19T10:39:51.814Z,99.90
2022-08-19T10:42:19.702Z,1.00
2022-08-19T10:44:47.761Z,1.00
2022-08-19T10:47:21.803Z,1.00
2022-08-19T10:50:13.899Z,99.90
2022-08-19T10:52:49.457Z,99.90
2022-08-19T10:55:38.255Z,99.90
2022-08-19T10:58:05.467Z,99.90
2022-08-19T11:00:33.444Z,99.90
2022-08-19T11:03:00.425Z,99.90
2022-08-19T11:05:27.324Z,99.90
2022-08-19T11:07:54.310Z,99.90
2022-08-19T11:10:22.186Z,99.90
2022-08-19T11:12:50.457Z,99.90
2022-08-19T11:15:17.426Z,99.90
2022-08-19T11:17:44.898Z,99.90
2022-08-19T11:20:16.130Z,99.90
2022-08-19T11:22:43.534Z,99.90
2022-08-19T11:25:12.063Z,99.90
2022-08-19T11:27:43.788Z,99.90
2022-08-19T11:30:13.039Z,99.90
2022-08-19T11:32:45.706Z,99.90
2022-08-19T11:35:15.871Z,99.90
2022-08-19T11:37:42.839Z,99.90
2022-08-19T11:40:10.574Z,99.90
2022-08-19T11:42:56.604Z,99.90
2022-08-19T11:45:29.109Z,99.90
2022-08-19T11:47:56.618Z,99.90
2022-08-19T11:50:24.861Z,99.90
2022-08-19T11:52:55.520Z,99.90
2022-08-19T11:55:22.869Z,99.90
2022-08-19T11:57:50.369Z,99.90
2022-08-19T12:00:17.701Z,99.90
2022-08-19T12:02:44.735Z,99.90
2022-08-19T12:05:12.841Z,99.90
2022-08-19T12:07:42.473Z,99.90
2022-08-19T12:10:10.764Z,99.90
2022-08-19T12:12:43.335Z,99.90
2022-08-19T12:15:12.114Z,99.90
2022-08-19T12:17:39.019Z,99.90
2022-08-19T12:20:07.429Z,99.90
2022-08-19T12:22:34.317Z,99.90
2022-08-19T12:25:01.967Z,99.90
2022-08-19T12:27:31.992Z,99.90
2022-08-19T12:30:04.335Z,99.90
2022-08-19T12:32:31.184Z,99.90
2022-08-19T12:34:58.422Z,99.90
2022-08-19T12:37:25.405Z,99.90
2022-08-19T12:39:52.422Z,99.90
2022-08-19T12:42:19.737Z,99.90
2022-08-19T12:44:46.821Z,99.90
2022-08-19T12:47:15.412Z,99.90
2022-08-19T12:49:53.315Z,99.90
2022-08-19T12:52:23.944Z,99.90
2022-08-19T12:54:54.117Z,99.90
2022-08-19T12:57:23.721Z,99.90
2022-08-19T12:59:58.530Z,99.90
2022-08-19T13:02:25.390Z,99.90
2022-08-19T13:04:52.380Z,99.90
2022-08-19T13:07:19.312Z,99.90
2022-08-19T13:09:46.235Z,99.90
2022-08-19T13:12:14.472Z,99.90
2022-08-19T13:14:43.127Z,99.90
2022-08-19T13:17:10.191Z,99.90
2022-08-19T13:19:41.278Z,99.90
2022-08-19T13:22:14.975Z,99.90
2022-08-19T13:24:46.836Z,99.90
2022-08-19T13:27:16.227Z,99.90
2022-08-19T13:30:01.971Z,99.90
2022-08-19T13:32:49.456Z,94.90
2022-08-19T13:35:17.965Z,76.80
2022-08-19T13:37:46.465Z,62.70
2022-08-19T13:40:19.984Z,63.90
2022-08-19T13:42:49.741Z,92.40
2022-08-19T13:45:21.864Z,94.10
2022-08-19T13:47:59.121Z,99.90
2022-08-19T13:50:34.919Z,91.70
2022-08-19T13:53:03.260Z,97.20
2022-08-19T13:55:30.211Z,99.90
2022-08-19T13:57:59.656Z,99.90
2022-08-19T14:00:30.540Z,99.90
2022-08-19T14:02:58.564Z,99.90
2022-08-19T14:05:27.676Z,99.90
2022-08-19T14:07:55.088Z,99.90
2022-08-19T14:10:24.569Z,99.90
2022-08-19T14:12:56.342Z,99.90
2022-08-19T14:15:24.565Z,99.90
2022-08-19T14:17:51.820Z,99.90
2022-08-19T14:20:19.330Z,99.90
2022-08-19T14:22:47.597Z,99.90
2022-08-19T14:25:18.364Z,99.90
2022-08-19T14:27:45.499Z,98.90
2022-08-19T14:30:15.670Z,99.90
2022-08-19T14:32:44.392Z,99.90
2022-08-19T14:35:13.487Z,74.70
2022-08-19T14:37:45.733Z,88.90
2022-08-19T14:40:15.106Z,93.60
2022-08-19T14:42:42.922Z,95.00
2022-08-19T14:45:10.899Z,78.10
2022-08-19T14:47:39.664Z,57.30
2022-08-19T14:50:18.192Z,68.20
2022-08-19T14:52:49.362Z,70.30
2022-08-19T14:55:17.633Z,1.00
2022-08-19T14:57:45.444Z,1.00
2022-08-19T15:00:14.376Z,1.00
2022-08-19T15:02:42.712Z,1.00
2022-08-19T15:05:09.932Z,1.00
2022-08-19T15:07:37.712Z,1.00
2022-08-19T15:10:07.912Z,1.00
2022-08-19T15:12:41.273Z,1.00
2022-08-19T15:15:13.789Z,1.00
2022-08-19T15:17:45.919Z,1.00
2022-08-19T15:20:17.165Z,1.00
2022-08-19T15:22:44.167Z,1.00
2022-08-19T15:25:14.579Z,1.00
2022-08-19T15:27:41.908Z,1.00
2022-08-19T15:30:09.999Z,1.00
2022-08-19T15:32:38.347Z,1.00
2022-08-19T15:35:06.874Z,1.00
2022-08-19T15:37:37.076Z,1.00
2022-08-19T15:40:06.659Z,1.00
2022-08-19T15:42:34.056Z,1.00
2022-08-19T15:45:02.421Z,24.50
2022-08-19T15:47:34.674Z,14.50
2022-08-19T15:50:21.476Z,26.50
2022-08-19T15:52:51.477Z,11.40
2022-08-19T15:55:34.220Z,13.60
2022-08-19T15:58:30.012Z,9.50
2022-08-19T16:01:24.114Z,16.00
2022-08-19T16:04:14.725Z,46.10
2022-08-19T16:06:47.841Z,36.40
2022-08-19T16:09:16.619Z,26.60
2022-08-19T16:11:46.506Z,23.60
2022-08-19T16:14:18.843Z,20.60
2022-08-19T16:16:47.801Z,23.20
2022-08-19T16:19:16.910Z,33.00
2022-08-19T16:21:52.510Z,11.30
2022-08-19T16:24:21.951Z,4.40
2022-08-19T16:26:49.318Z,7.40
2022-08-19T16:29:33.304Z,15.60
2022-08-19T16:32:03.542Z,27.60
2022-08-19T16:34:30.922Z,45.10
2022-08-19T16:36:57.778Z,44.60
2022-08-19T16:39:24.763Z,46.90
2022-08-19T16:41:51.690Z,60.80
2022-08-19T16:44:21.177Z,62.10
2022-08-19T16:46:57.264Z,59.40
2022-08-19T16:49:52.821Z,58.30
2022-08-19T16:52:16.246Z,73.00
2022-08-19T16:54:43.631Z,73.90
2022-08-19T16:57:11.923Z,93.30
2022-08-19T16:59:43.803Z,93.90
2022-08-19T17:02:20.212Z,99.90
2022-08-19T17:04:57.961Z,99.90
2022-08-19T17:07:33.027Z,99.90
2022-08-19T17:10:00.828Z,99.90
2022-08-19T17:12:32.258Z,99.90
2022-08-19T17:15:01.194Z,99.90
2022-08-19T17:17:29.518Z,99.90
2022-08-19T17:19:57.516Z,99.90
2022-08-19T17:22:24.558Z,99.90
2022-08-19T17:24:51.432Z,99.90
2022-08-19T17:27:19.891Z,99.90
2022-08-19T17:29:47.268Z,99.90
2022-08-19T17:32:15.424Z,99.90
2022-08-19T17:34:42.325Z,99.90
2022-08-19T17:37:09.262Z,99.90
2022-08-19T17:39:39.798Z,99.90
2022-08-19T17:42:08.206Z,1.00
2022-08-19T17:44:36.753Z,1.00
2022-08-19T17:47:04.585Z,1.00
2022-08-19T17:49:33.385Z,1.00
2022-08-19T17:52:00.630Z,15.20
2022-08-19T17:54:28.275Z,37.80
2022-08-19T17:57:00.208Z,99.90
2022-08-19T17:59:28.510Z,99.90
2022-08-19T18:01:57.716Z,99.90
2022-08-19T18:04:25.636Z,99.90
2022-08-19T18:06:55.150Z,99.90
2022-08-19T18:09:42.373Z,99.90
2022-08-19T18:12:12.109Z,99.90
2022-08-19T18:14:39.771Z,99.90
2022-08-19T18:17:10.897Z,99.90
2022-08-19T18:19:41.055Z,99.90
2022-08-19T18:22:11.327Z,99.90
2022-08-19T18:24:40.544Z,99.90
2022-08-19T18:27:07.586Z,99.90
2022-08-19T18:29:37.007Z,1.00
2022-08-19T18:32:04.425Z,1.00
2022-08-19T18:34:31.271Z,60.40
2022-08-19T18:36:58.151Z,99.90
2022-08-19T18:39:44.135Z,99.90
2022-08-19T18:42:33.532Z,99.90
2022-08-19T18:45:19.095Z,99.90
2022-08-19T18:48:04.661Z,99.90
2022-08-19T18:50:32.105Z,99.90
2022-08-19T18:52:59.595Z,99.90
2022-08-19T18:55:28.482Z,99.90
2022-08-19T18:57:55.840Z,99.90
2022-08-19T19:00:22.945Z,99.90
2022-08-19T19:02:50.218Z,99.90
2022-08-19T19:05:17.114Z,99.90
2022-08-19T19:07:44.040Z,99.90
2022-08-19T19:10:11.031Z,99.90
2022-08-19T19:12:42.542Z,99.90
2022-08-19T19:15:09.810Z,99.90
2022-08-19T19:17:36.995Z,99.90
2022-08-19T19:20:05.468Z,1.00
2022-08-19T19:22:32.394Z,1.00
2022-08-19T19:24:59.615Z,1.00
2022-08-19T19:27:26.562Z,1.00
2022-08-19T19:29:53.434Z,1.00
2022-08-19T19:32:27.124Z,1.00
2022-08-19T19:34:54.505Z,1.00
2022-08-19T19:37:22.602Z,1.00
2022-08-19T19:39:49.581Z,1.00
2022-08-19T19:42:19.985Z,1.00
2022-08-19T19:44:49.345Z,16.50
2022-08-19T19:47:18.562Z,99.90
2022-08-19T19:52:39.546Z,99.90
2022-08-19T19:55:07.332Z,99.90
2022-08-19T19:57:34.283Z,99.90
2022-08-19T20:00:01.177Z,1.00
2022-08-19T20:02:28.140Z,99.90
2022-08-19T20:04:57.228Z,99.90
2022-08-19T20:07:44.124Z,1.00
2022-08-19T20:10:11.138Z,61.70
2022-08-19T20:12:39.223Z,99.90
2022-08-19T20:15:08.177Z,99.90
2022-08-19T20:17:36.571Z,99.90
2022-08-19T20:20:03.821Z,1.00
2022-08-19T20:22:33.757Z,99.90
2022-08-19T20:25:22.230Z,1.00
2022-08-19T20:27:49.710Z,1.00
2022-08-19T20:30:19.871Z,99.90
2022-08-19T20:32:47.855Z,99.90
2022-08-19T20:35:18.444Z,99.90
2022-08-19T20:37:45.832Z,1.00
2022-08-19T20:40:14.482Z,1.00
2022-08-19T20:42:43.792Z,16.50
2022-08-19T20:45:32.090Z,1.00
2022-08-19T20:48:02.564Z,36.60
2022-08-19T20:50:30.367Z,99.90
2022-08-19T20:52:57.602Z,99.90
2022-08-19T20:55:25.961Z,99.90
2022-08-19T20:57:52.896Z,99.90
2022-08-19T21:00:19.894Z,1.00
2022-08-19T21:02:47.081Z,1.00
2022-08-19T21:05:15.119Z,61.70
2022-08-19T21:07:42.262Z,99.90
2022-08-19T21:10:09.273Z,99.90
2022-08-19T21:12:36.313Z,99.90
2022-08-19T21:15:04.481Z,94.20
2022-08-19T21:17:31.731Z,71.40
2022-08-19T21:19:58.687Z,99.90
2022-08-19T21:22:25.574Z,99.90
2022-08-19T21:24:52.576Z,99.90
2022-08-19T21:27:19.424Z,99.90
2022-08-19T21:29:46.247Z,99.90
2022-08-19T21:32:14.254Z,99.90
2022-08-19T21:34:44.052Z,1.00
2022-08-19T21:37:25.129Z,1.00
2022-08-19T21:39:54.027Z,1.00
2022-08-19T21:42:22.515Z,1.00
2022-08-19T21:44:49.470Z,1.00
2022-08-19T21:47:16.567Z,1.00
2022-08-19T21:49:43.490Z,1.00
2022-08-19T21:52:10.628Z,1.00
2022-08-19T21:54:38.119Z,1.00
2022-08-19T21:57:09.967Z,1.00
2022-08-19T21:59:43.489Z,1.00
2022-08-19T22:02:20.403Z,1.00
2022-08-19T22:04:48.654Z,1.00
2022-08-19T22:07:15.889Z,1.00
2022-08-19T22:09:44.824Z,1.00
2022-08-19T22:12:24.686Z,1.00
2022-08-19T22:14:52.520Z,1.00
2022-08-19T22:17:20.426Z,1.00
2022-08-19T22:19:47.411Z,1.00
2022-08-19T22:22:21.470Z,1.00
2022-08-19T22:24:48.352Z,1.00
2022-08-19T22:27:15.432Z,1.00
2022-08-19T22:29:42.904Z,1.00
2022-08-19T22:32:27.195Z,1.00
2022-08-19T22:34:58.129Z,1.00
2022-08-19T22:37:25.572Z,1.00
2022-08-19T22:39:52.461Z,1.00
2022-08-19T22:42:22.920Z,1.00
2022-08-19T22:44:49.858Z,1.00
2022-08-19T22:47:16.778Z,1.00
2022-08-19T22:49:44.519Z,99.90
2022-08-19T22:52:18.319Z,99.90
2022-08-19T22:54:46.764Z,99.90
2022-08-19T22:57:14.857Z,99.90
2022-08-19T22:59:43.070Z,99.90
2022-08-19T23:02:10.134Z,99.90
2022-08-19T23:04:37.110Z,99.90
2022-08-19T23:07:05.553Z,99.90
2022-08-19T23:09:32.482Z,99.90
2022-08-19T23:12:00.717Z,99.90
2022-08-19T23:14:28.258Z,1.00
2022-08-19T23:16:58.842Z,99.90
2022-08-19T23:19:26.196Z,99.90
2022-08-19T23:21:53.300Z,99.90
2022-08-19T23:24:20.427Z,99.90
2022-08-19T23:27:05.727Z,99.90
2022-08-19T23:29:51.488Z,99.90
2022-08-19T23:32:19.675Z,99.90
2022-08-19T23:34:46.760Z,99.90
2022-08-19T23:37:13.891Z,99.90
2022-08-19T23:39:41.064Z,99.90
2022-08-19T23:42:14.158Z,99.90
2022-08-19T23:44:51.855Z,99.90
2022-08-19T23:47:20.254Z,99.90
2022-08-19T23:49:48.757Z,99.90
2022-08-19T23:52:15.654Z,99.90
2022-08-19T23:54:43.520Z,99.90
2022-08-19T23:57:13.454Z,99.90
2022-08-19T23:59:42.652Z,99.90
